sensor_id;sensor_type;location;lat;lon;timestamp;P1;durP1;ratioP1;P2;durP2;ratioP2
5900;SDS011;2976;49.764;9.796;2022-12-18T00:00:57;72.20;;;28.52;;
5900;SDS011;2976;49.764;9.796;2022-12-18T00:03:23;79.07;;;29.57;;
5900;SDS011;2976;49.764;9.796;2022-12-18T00:05:49;66.33;;;27.60;;
5900;SDS011;2976;49.764;9.796;2022-12-18T00:08:15;91.25;;;31.92;;
5900;SDS011;2976;49.764;9.796;2022-12-18T00:10:41;89.40;;;33.97;;
5900;SDS011;2976;49.764;9.796;2022-12-18T00:13:07;82.00;;;31.63;;
5900;SDS011;2976;49.764;9.796;2022-12-18T00:15:34;86.77;;;29.20;;
5900;SDS011;2976;49.764;9.796;2022-12-18T00:18:00;80.35;;;30.45;;
5900;SDS011;2976;49.764;9.796;2022-12-18T00:20:25;96.77;;;32.93;;
5900;SDS011;2976;49.764;9.796;2022-12-18T00:22:51;79.80;;;30.50;;
5900;SDS011;2976;49.764;9.796;2022-12-18T00:25:18;71.80;;;27.70;;
5900;SDS011;2976;49.764;9.796;2022-12-18T00:27:43;77.57;;;26.70;;
5900;SDS011;2976;49.764;9.796;2022-12-18T00:30:09;72.97;;;24.37;;
5900;SDS011;2976;49.764;9.796;2022-12-18T00:32:35;53.38;;;20.55;;
5900;SDS011;2976;49.764;9.796;2022-12-18T00:35:01;59.47;;;22.57;;
5900;SDS011;2976;49.764;9.796;2022-12-18T00:37:26;61.67;;;24.63;;
5900;SDS011;2976;49.764;9.796;2022-12-18T00:39:52;61.23;;;22.47;;
5900;SDS011;2976;49.764;9.796;2022-12-18T00:42:17;56.77;;;23.27;;
5900;SDS011;2976;49.764;9.796;2022-12-18T00:45:02;55.65;;;22.38;;
5900;SDS011;2976;49.764;9.796;2022-12-18T00:47:28;55.38;;;22.17;;
5900;SDS011;2976;49.764;9.796;2022-12-18T00:49:53;56.43;;;24.00;;
5900;SDS011;2976;49.764;9.796;2022-12-18T00:52:19;58.77;;;22.73;;
5900;SDS011;2976;49.764;9.796;2022-12-18T00:54:44;55.80;;;22.27;;
5900;SDS011;2976;49.764;9.796;2022-12-18T00:57:10;60.50;;;22.10;;
5900;SDS011;2976;49.764;9.796;2022-12-18T00:59:35;61.50;;;22.57;;
5900;SDS011;2976;49.764;9.796;2022-12-18T01:02:01;52.87;;;22.07;;
5900;SDS011;2976;49.764;9.796;2022-12-18T01:04:26;48.37;;;20.83;;
5900;SDS011;2976;49.764;9.796;2022-12-18T01:06:52;56.17;;;23.80;;
5900;SDS011;2976;49.764;9.796;2022-12-18T01:09:17;60.77;;;22.57;;
5900;SDS011;2976;49.764;9.796;2022-12-18T01:11:43;44.27;;;20.37;;
5900;SDS011;2976;49.764;9.796;2022-12-18T01:14:09;58.43;;;24.03;;
5900;SDS011;2976;49.764;9.796;2022-12-18T01:16:34;69.87;;;22.07;;
5900;SDS011;2976;49.764;9.796;2022-12-18T01:19:00;52.60;;;21.30;;
5900;SDS011;2976;49.764;9.796;2022-12-18T01:21:25;61.77;;;22.63;;
5900;SDS011;2976;49.764;9.796;2022-12-18T01:23:55;66.37;;;22.00;;
5900;SDS011;2976;49.764;9.796;2022-12-18T01:26:21;63.72;;;23.70;;
5900;SDS011;2976;49.764;9.796;2022-12-18T01:28:47;62.78;;;20.95;;
5900;SDS011;2976;49.764;9.796;2022-12-18T01:31:14;68.43;;;24.10;;
5900;SDS011;2976;49.764;9.796;2022-12-18T01:33:44;65.93;;;23.45;;
5900;SDS011;2976;49.764;9.796;2022-12-18T01:36:14;54.90;;;23.50;;
5900;SDS011;2976;49.764;9.796;2022-12-18T01:38:51;56.20;;;22.42;;
5900;SDS011;2976;49.764;9.796;2022-12-18T01:41:18;62.30;;;23.10;;
5900;SDS011;2976;49.764;9.796;2022-12-18T01:43:56;67.65;;;23.17;;
5900;SDS011;2976;49.764;9.796;2022-12-18T01:46:23;70.07;;;22.20;;
5900;SDS011;2976;49.764;9.796;2022-12-18T01:48:50;55.75;;;24.48;;
5900;SDS011;2976;49.764;9.796;2022-12-18T01:51:24;62.50;;;24.05;;
5900;SDS011;2976;49.764;9.796;2022-12-18T01:53:51;53.42;;;20.70;;
5900;SDS011;2976;49.764;9.796;2022-12-18T01:56:18;62.77;;;22.30;;
5900;SDS011;2976;49.764;9.796;2022-12-18T02:01:17;60.92;;;21.55;;
5900;SDS011;2976;49.764;9.796;2022-12-18T02:03:44;45.35;;;19.42;;
5900;SDS011;2976;49.764;9.796;2022-12-18T02:14:30;59.30;;;22.33;;
5900;SDS011;2976;49.764;9.796;2022-12-18T02:17:21;45.63;;;20.48;;
5900;SDS011;2976;49.764;9.796;2022-12-18T02:22:27;55.72;;;21.38;;
5900;SDS011;2976;49.764;9.796;2022-12-18T02:25:16;59.20;;;21.33;;
5900;SDS011;2976;49.764;9.796;2022-12-18T02:27:48;55.47;;;21.02;;
5900;SDS011;2976;49.764;9.796;2022-12-18T02:30:16;55.78;;;21.88;;
5900;SDS011;2976;49.764;9.796;2022-12-18T02:32:47;42.38;;;17.83;;
5900;SDS011;2976;49.764;9.796;2022-12-18T02:35:19;72.28;;;21.20;;
5900;SDS011;2976;49.764;9.796;2022-12-18T02:37:48;51.38;;;20.30;;
5900;SDS011;2976;49.764;9.796;2022-12-18T02:40:15;50.22;;;18.63;;
5900;SDS011;2976;49.764;9.796;2022-12-18T02:42:43;53.97;;;20.52;;
5900;SDS011;2976;49.764;9.796;2022-12-18T02:45:08;58.97;;;20.03;;
5900;SDS011;2976;49.764;9.796;2022-12-18T02:47:36;58.13;;;20.23;;
5900;SDS011;2976;49.764;9.796;2022-12-18T02:50:26;59.42;;;22.17;;
5900;SDS011;2976;49.764;9.796;2022-12-18T02:53:22;53.97;;;19.35;;
5900;SDS011;2976;49.764;9.796;2022-12-18T02:56:26;46.47;;;18.30;;
5900;SDS011;2976;49.764;9.796;2022-12-18T03:01:45;52.28;;;20.48;;
5900;SDS011;2976;49.764;9.796;2022-12-18T03:07:11;50.03;;;18.88;;
5900;SDS011;2976;49.764;9.796;2022-12-18T03:09:44;56.28;;;20.30;;
5900;SDS011;2976;49.764;9.796;2022-12-18T03:12:18;55.83;;;22.33;;
5900;SDS011;2976;49.764;9.796;2022-12-18T03:15:03;49.33;;;20.27;;
5900;SDS011;2976;49.764;9.796;2022-12-18T03:17:34;46.72;;;20.00;;
5900;SDS011;2976;49.764;9.796;2022-12-18T03:20:06;51.20;;;20.77;;
5900;SDS011;2976;49.764;9.796;2022-12-18T03:22:38;47.17;;;18.83;;
5900;SDS011;2976;49.764;9.796;2022-12-18T03:25:07;54.47;;;20.58;;
5900;SDS011;2976;49.764;9.796;2022-12-18T03:27:36;42.17;;;18.63;;
5900;SDS011;2976;49.764;9.796;2022-12-18T03:30:10;46.72;;;19.58;;
5900;SDS011;2976;49.764;9.796;2022-12-18T03:35:32;49.50;;;19.08;;
5900;SDS011;2976;49.764;9.796;2022-12-18T03:38:02;47.20;;;19.02;;
5900;SDS011;2976;49.764;9.796;2022-12-18T03:43:10;47.78;;;19.75;;
5900;SDS011;2976;49.764;9.796;2022-12-18T03:45:48;44.63;;;19.92;;
5900;SDS011;2976;49.764;9.796;2022-12-18T03:48:20;49.42;;;19.55;;
5900;SDS011;2976;49.764;9.796;2022-12-18T03:50:57;52.40;;;18.90;;
5900;SDS011;2976;49.764;9.796;2022-12-18T03:53:30;59.40;;;20.23;;
5900;SDS011;2976;49.764;9.796;2022-12-18T03:56:17;54.15;;;18.15;;
5900;SDS011;2976;49.764;9.796;2022-12-18T03:58:46;49.10;;;18.75;;
5900;SDS011;2976;49.764;9.796;2022-12-18T04:01:14;44.50;;;19.45;;
5900;SDS011;2976;49.764;9.796;2022-12-18T04:03:42;57.33;;;22.50;;
5900;SDS011;2976;49.764;9.796;2022-12-18T04:06:11;44.95;;;18.10;;
5900;SDS011;2976;49.764;9.796;2022-12-18T04:08:37;59.65;;;20.67;;
5900;SDS011;2976;49.764;9.796;2022-12-18T04:11:04;52.60;;;20.17;;
5900;SDS011;2976;49.764;9.796;2022-12-18T04:13:37;56.65;;;18.33;;
5900;SDS011;2976;49.764;9.796;2022-12-18T04:16:03;42.65;;;16.40;;
5900;SDS011;2976;49.764;9.796;2022-12-18T04:18:29;46.85;;;18.85;;
5900;SDS011;2976;49.764;9.796;2022-12-18T04:20:55;50.60;;;18.95;;
5900;SDS011;2976;49.764;9.796;2022-12-18T04:23:21;54.13;;;17.87;;
5900;SDS011;2976;49.764;9.796;2022-12-18T04:25:46;42.57;;;17.27;;
5900;SDS011;2976;49.764;9.796;2022-12-18T04:28:12;53.20;;;19.50;;
5900;SDS011;2976;49.764;9.796;2022-12-18T04:30:38;46.27;;;19.00;;
5900;SDS011;2976;49.764;9.796;2022-12-18T04:33:07;43.27;;;17.30;;
5900;SDS011;2976;49.764;9.796;2022-12-18T04:35:34;49.95;;;18.33;;
5900;SDS011;2976;49.764;9.796;2022-12-18T04:38:00;43.20;;;19.50;;
5900;SDS011;2976;49.764;9.796;2022-12-18T04:40:25;53.33;;;16.87;;
5900;SDS011;2976;49.764;9.796;2022-12-18T04:42:51;66.20;;;18.07;;
5900;SDS011;2976;49.764;9.796;2022-12-18T04:45:17;37.90;;;15.67;;
5900;SDS011;2976;49.764;9.796;2022-12-18T04:47:42;58.43;;;20.00;;
5900;SDS011;2976;49.764;9.796;2022-12-18T04:50:08;50.23;;;17.63;;
5900;SDS011;2976;49.764;9.796;2022-12-18T04:52:34;53.97;;;17.45;;
5900;SDS011;2976;49.764;9.796;2022-12-18T04:55:00;40.37;;;17.37;;
5900;SDS011;2976;49.764;9.796;2022-12-18T04:57:25;53.90;;;16.47;;
5900;SDS011;2976;49.764;9.796;2022-12-18T04:59:51;47.63;;;18.20;;
5900;SDS011;2976;49.764;9.796;2022-12-18T05:02:17;41.83;;;18.87;;
5900;SDS011;2976;49.764;9.796;2022-12-18T05:04:42;49.60;;;21.17;;
5900;SDS011;2976;49.764;9.796;2022-12-18T05:07:08;76.10;;;25.27;;
5900;SDS011;2976;49.764;9.796;2022-12-18T05:09:33;61.50;;;21.43;;
5900;SDS011;2976;49.764;9.796;2022-12-18T05:11:59;49.37;;;20.20;;
5900;SDS011;2976;49.764;9.796;2022-12-18T05:14:24;48.47;;;20.20;;
5900;SDS011;2976;49.764;9.796;2022-12-18T05:16:50;58.97;;;21.27;;
5900;SDS011;2976;49.764;9.796;2022-12-18T05:19:15;63.03;;;21.70;;
5900;SDS011;2976;49.764;9.796;2022-12-18T05:21:41;56.13;;;20.93;;
5900;SDS011;2976;49.764;9.796;2022-12-18T05:24:06;50.30;;;19.60;;
5900;SDS011;2976;49.764;9.796;2022-12-18T05:26:32;47.55;;;19.15;;
5900;SDS011;2976;49.764;9.796;2022-12-18T05:28:58;52.20;;;21.20;;
5900;SDS011;2976;49.764;9.796;2022-12-18T05:31:23;68.47;;;21.97;;
5900;SDS011;2976;49.764;9.796;2022-12-18T05:33:49;50.80;;;19.83;;
5900;SDS011;2976;49.764;9.796;2022-12-18T05:36:14;50.97;;;20.10;;
5900;SDS011;2976;49.764;9.796;2022-12-18T05:38:40;64.07;;;22.17;;
5900;SDS011;2976;49.764;9.796;2022-12-18T05:41:06;65.40;;;23.27;;
5900;SDS011;2976;49.764;9.796;2022-12-18T05:43:33;52.65;;;19.92;;
5900;SDS011;2976;49.764;9.796;2022-12-18T05:46:07;59.85;;;19.73;;
5900;SDS011;2976;49.764;9.796;2022-12-18T05:48:36;51.03;;;17.63;;
5900;SDS011;2976;49.764;9.796;2022-12-18T05:51:09;48.63;;;21.33;;
5900;SDS011;2976;49.764;9.796;2022-12-18T05:53:37;64.07;;;24.35;;
5900;SDS011;2976;49.764;9.796;2022-12-18T05:56:03;63.28;;;20.08;;
5900;SDS011;2976;49.764;9.796;2022-12-18T05:58:31;57.58;;;22.10;;
5900;SDS011;2976;49.764;9.796;2022-12-18T06:00:56;63.58;;;25.05;;
5900;SDS011;2976;49.764;9.796;2022-12-18T06:03:22;71.90;;;23.53;;
5900;SDS011;2976;49.764;9.796;2022-12-18T06:05:48;67.07;;;22.97;;
5900;SDS011;2976;49.764;9.796;2022-12-18T06:08:14;71.33;;;26.07;;
5900;SDS011;2976;49.764;9.796;2022-12-18T06:10:40;61.53;;;21.57;;
5900;SDS011;2976;49.764;9.796;2022-12-18T06:13:06;75.78;;;24.52;;
5900;SDS011;2976;49.764;9.796;2022-12-18T06:15:32;80.18;;;25.15;;
5900;SDS011;2976;49.764;9.796;2022-12-18T06:18:00;82.68;;;26.70;;
5900;SDS011;2976;49.764;9.796;2022-12-18T06:20:26;96.30;;;30.20;;
5900;SDS011;2976;49.764;9.796;2022-12-18T06:22:52;117.27;;;29.00;;
5900;SDS011;2976;49.764;9.796;2022-12-18T06:25:17;99.63;;;28.83;;
5900;SDS011;2976;49.764;9.796;2022-12-18T06:27:43;90.77;;;27.40;;
5900;SDS011;2976;49.764;9.796;2022-12-18T06:30:09;77.87;;;24.87;;
5900;SDS011;2976;49.764;9.796;2022-12-18T06:32:35;86.53;;;26.45;;
5900;SDS011;2976;49.764;9.796;2022-12-18T06:35:00;91.20;;;27.00;;
5900;SDS011;2976;49.764;9.796;2022-12-18T06:37:26;86.97;;;25.83;;
5900;SDS011;2976;49.764;9.796;2022-12-18T06:39:52;89.23;;;24.40;;
5900;SDS011;2976;49.764;9.796;2022-12-18T06:42:18;81.47;;;23.40;;
5900;SDS011;2976;49.764;9.796;2022-12-18T06:44:47;66.97;;;26.75;;
5900;SDS011;2976;49.764;9.796;2022-12-18T06:47:12;85.50;;;25.10;;
5900;SDS011;2976;49.764;9.796;2022-12-18T06:49:38;65.47;;;22.03;;
5900;SDS011;2976;49.764;9.796;2022-12-18T06:52:03;80.70;;;23.23;;
5900;SDS011;2976;49.764;9.796;2022-12-18T06:54:29;83.10;;;22.27;;
5900;SDS011;2976;49.764;9.796;2022-12-18T06:56:54;85.27;;;27.03;;
5900;SDS011;2976;49.764;9.796;2022-12-18T06:59:21;90.00;;;25.50;;
5900;SDS011;2976;49.764;9.796;2022-12-18T07:01:46;83.27;;;25.97;;
5900;SDS011;2976;49.764;9.796;2022-12-18T07:04:12;93.33;;;23.40;;
5900;SDS011;2976;49.764;9.796;2022-12-18T07:06:38;66.43;;;23.23;;
5900;SDS011;2976;49.764;9.796;2022-12-18T07:09:03;85.27;;;26.37;;
5900;SDS011;2976;49.764;9.796;2022-12-18T07:11:29;69.93;;;24.03;;
5900;SDS011;2976;49.764;9.796;2022-12-18T07:13:54;95.07;;;29.47;;
5900;SDS011;2976;49.764;9.796;2022-12-18T07:16:20;65.97;;;22.87;;
5900;SDS011;2976;49.764;9.796;2022-12-18T07:18:46;82.27;;;25.07;;
5900;SDS011;2976;49.764;9.796;2022-12-18T07:21:13;73.33;;;23.83;;
5900;SDS011;2976;49.764;9.796;2022-12-18T07:23:41;74.28;;;23.23;;
5900;SDS011;2976;49.764;9.796;2022-12-18T07:26:08;73.70;;;22.33;;
5900;SDS011;2976;49.764;9.796;2022-12-18T07:28:35;56.50;;;18.15;;
5900;SDS011;2976;49.764;9.796;2022-12-18T07:31:03;80.40;;;22.98;;
5900;SDS011;2976;49.764;9.796;2022-12-18T07:33:36;75.82;;;23.30;;
5900;SDS011;2976;49.764;9.796;2022-12-18T07:36:03;69.33;;;21.90;;
5900;SDS011;2976;49.764;9.796;2022-12-18T07:38:31;73.82;;;22.30;;
5900;SDS011;2976;49.764;9.796;2022-12-18T07:41:07;69.53;;;22.83;;
5900;SDS011;2976;49.764;9.796;2022-12-18T07:43:35;68.43;;;21.65;;
5900;SDS011;2976;49.764;9.796;2022-12-18T07:46:01;73.82;;;23.13;;
5900;SDS011;2976;49.764;9.796;2022-12-18T07:48:27;70.38;;;22.35;;
5900;SDS011;2976;49.764;9.796;2022-12-18T07:50:55;69.30;;;22.42;;
5900;SDS011;2976;49.764;9.796;2022-12-18T07:53:26;81.07;;;24.15;;
5900;SDS011;2976;49.764;9.796;2022-12-18T07:55:56;78.03;;;23.90;;
5900;SDS011;2976;49.764;9.796;2022-12-18T07:58:22;73.45;;;23.60;;
5900;SDS011;2976;49.764;9.796;2022-12-18T08:00:48;79.97;;;24.57;;
5900;SDS011;2976;49.764;9.796;2022-12-18T08:03:13;72.10;;;22.17;;
5900;SDS011;2976;49.764;9.796;2022-12-18T08:05:39;74.97;;;22.80;;
5900;SDS011;2976;49.764;9.796;2022-12-18T08:08:04;60.13;;;20.80;;
5900;SDS011;2976;49.764;9.796;2022-12-18T08:10:30;70.47;;;25.43;;
5900;SDS011;2976;49.764;9.796;2022-12-18T08:12:56;72.30;;;22.83;;
5900;SDS011;2976;49.764;9.796;2022-12-18T08:15:21;97.17;;;29.60;;
5900;SDS011;2976;49.764;9.796;2022-12-18T08:17:47;82.47;;;26.90;;
5900;SDS011;2976;49.764;9.796;2022-12-18T08:20:12;78.70;;;23.10;;
5900;SDS011;2976;49.764;9.796;2022-12-18T08:22:39;61.38;;;20.50;;
5900;SDS011;2976;49.764;9.796;2022-12-18T08:25:08;83.68;;;24.92;;
5900;SDS011;2976;49.764;9.796;2022-12-18T08:27:34;69.33;;;27.43;;
5900;SDS011;2976;49.764;9.796;2022-12-18T08:29:59;71.43;;;26.17;;
5900;SDS011;2976;49.764;9.796;2022-12-18T08:32:25;61.83;;;22.60;;
5900;SDS011;2976;49.764;9.796;2022-12-18T08:34:51;72.25;;;26.15;;
5900;SDS011;2976;49.764;9.796;2022-12-18T08:37:17;83.13;;;26.83;;
5900;SDS011;2976;49.764;9.796;2022-12-18T08:39:43;57.67;;;21.50;;
5900;SDS011;2976;49.764;9.796;2022-12-18T08:42:08;69.87;;;23.70;;
5900;SDS011;2976;49.764;9.796;2022-12-18T08:44:52;74.93;;;24.67;;
5900;SDS011;2976;49.764;9.796;2022-12-18T08:47:18;78.80;;;23.30;;
5900;SDS011;2976;49.764;9.796;2022-12-18T08:49:43;70.30;;;23.27;;
5900;SDS011;2976;49.764;9.796;2022-12-18T08:52:09;73.27;;;25.47;;
5900;SDS011;2976;49.764;9.796;2022-12-18T08:54:34;71.77;;;23.60;;
5900;SDS011;2976;49.764;9.796;2022-12-18T08:57:00;66.10;;;24.67;;
5900;SDS011;2976;49.764;9.796;2022-12-18T08:59:25;75.10;;;25.97;;
5900;SDS011;2976;49.764;9.796;2022-12-18T09:01:53;64.40;;;20.77;;
5900;SDS011;2976;49.764;9.796;2022-12-18T09:04:18;68.80;;;22.88;;
5900;SDS011;2976;49.764;9.796;2022-12-18T09:06:44;63.43;;;20.27;;
5900;SDS011;2976;49.764;9.796;2022-12-18T09:09:10;56.43;;;21.00;;
5900;SDS011;2976;49.764;9.796;2022-12-18T09:11:36;64.30;;;21.20;;
5900;SDS011;2976;49.764;9.796;2022-12-18T09:14:02;53.08;;;20.73;;
5900;SDS011;2976;49.764;9.796;2022-12-18T09:16:28;54.87;;;21.30;;
5900;SDS011;2976;49.764;9.796;2022-12-18T09:18:54;58.25;;;20.63;;
5900;SDS011;2976;49.764;9.796;2022-12-18T09:21:24;56.42;;;20.27;;
5900;SDS011;2976;49.764;9.796;2022-12-18T09:23:53;72.63;;;23.27;;
5900;SDS011;2976;49.764;9.796;2022-12-18T09:26:19;60.53;;;21.05;;
5900;SDS011;2976;49.764;9.796;2022-12-18T09:28:49;54.00;;;20.63;;
5900;SDS011;2976;49.764;9.796;2022-12-18T09:31:15;63.67;;;20.87;;
5900;SDS011;2976;49.764;9.796;2022-12-18T09:33:41;53.83;;;21.15;;
5900;SDS011;2976;49.764;9.796;2022-12-18T09:36:08;54.17;;;20.10;;
5900;SDS011;2976;49.764;9.796;2022-12-18T09:38:36;48.60;;;20.45;;
5900;SDS011;2976;49.764;9.796;2022-12-18T09:43:57;53.90;;;20.17;;
5900;SDS011;2976;49.764;9.796;2022-12-18T09:46:30;57.15;;;21.23;;
5900;SDS011;2976;49.764;9.796;2022-12-18T09:49:00;52.63;;;19.77;;
5900;SDS011;2976;49.764;9.796;2022-12-18T09:51:32;48.78;;;17.75;;
5900;SDS011;2976;49.764;9.796;2022-12-18T09:54:06;52.17;;;19.27;;
5900;SDS011;2976;49.764;9.796;2022-12-18T09:56:38;67.70;;;22.05;;
5900;SDS011;2976;49.764;9.796;2022-12-18T09:59:09;56.80;;;18.45;;
5900;SDS011;2976;49.764;9.796;2022-12-18T10:01:47;55.03;;;17.77;;
5900;SDS011;2976;49.764;9.796;2022-12-18T10:04:13;45.90;;;17.27;;
5900;SDS011;2976;49.764;9.796;2022-12-18T10:06:41;53.93;;;20.13;;
5900;SDS011;2976;49.764;9.796;2022-12-18T10:11:48;49.78;;;18.05;;
5900;SDS011;2976;49.764;9.796;2022-12-18T10:17:50;47.10;;;19.50;;
5900;SDS011;2976;49.764;9.796;2022-12-18T10:19:53;60.22;;;20.20;;
5900;SDS011;2976;49.764;9.796;2022-12-18T10:27:52;47.47;;;20.60;;
5900;SDS011;2976;49.764;9.796;2022-12-18T10:30:21;60.28;;;21.35;;
5900;SDS011;2976;49.764;9.796;2022-12-18T10:32:48;59.05;;;20.02;;
5900;SDS011;2976;49.764;9.796;2022-12-18T10:35:24;41.93;;;18.87;;
5900;SDS011;2976;49.764;9.796;2022-12-18T10:38:01;45.15;;;17.65;;
5900;SDS011;2976;49.764;9.796;2022-12-18T10:40:33;41.33;;;16.58;;
5900;SDS011;2976;49.764;9.796;2022-12-18T10:43:13;49.65;;;19.73;;
5900;SDS011;2976;49.764;9.796;2022-12-18T10:45:41;49.70;;;20.90;;
5900;SDS011;2976;49.764;9.796;2022-12-18T10:48:18;49.55;;;20.15;;
5900;SDS011;2976;49.764;9.796;2022-12-18T10:50:46;54.10;;;22.17;;
5900;SDS011;2976;49.764;9.796;2022-12-18T10:53:17;48.97;;;19.17;;
5900;SDS011;2976;49.764;9.796;2022-12-18T10:55:48;49.58;;;18.55;;
5900;SDS011;2976;49.764;9.796;2022-12-18T11:01:07;55.40;;;19.02;;
5900;SDS011;2976;49.764;9.796;2022-12-18T11:06:22;45.50;;;16.40;;
5900;SDS011;2976;49.764;9.796;2022-12-18T11:11:31;40.90;;;16.88;;
5900;SDS011;2976;49.764;9.796;2022-12-18T11:16:33;44.50;;;18.90;;
5900;SDS011;2976;49.764;9.796;2022-12-18T11:19:12;41.75;;;16.92;;
5900;SDS011;2976;49.764;9.796;2022-12-18T11:21:53;36.75;;;15.63;;
5900;SDS011;2976;49.764;9.796;2022-12-18T11:26:59;39.42;;;17.65;;
5900;SDS011;2976;49.764;9.796;2022-12-18T11:29:37;46.53;;;17.15;;
5900;SDS011;2976;49.764;9.796;2022-12-18T11:35:03;45.28;;;16.58;;
5900;SDS011;2976;49.764;9.796;2022-12-18T11:37:40;41.75;;;16.52;;
5900;SDS011;2976;49.764;9.796;2022-12-18T11:40:14;41.15;;;15.20;;
5900;SDS011;2976;49.764;9.796;2022-12-18T11:42:58;37.67;;;15.85;;
5900;SDS011;2976;49.764;9.796;2022-12-18T11:45:29;33.50;;;14.57;;
5900;SDS011;2976;49.764;9.796;2022-12-18T11:50:51;46.90;;;16.35;;
5900;SDS011;2976;49.764;9.796;2022-12-18T11:53:21;42.30;;;17.27;;
5900;SDS011;2976;49.764;9.796;2022-12-18T11:55:50;40.45;;;16.65;;
5900;SDS011;2976;49.764;9.796;2022-12-18T12:04:03;60.10;;;19.55;;
5900;SDS011;2976;49.764;9.796;2022-12-18T12:07:11;45.42;;;19.30;;
5900;SDS011;2976;49.764;9.796;2022-12-18T12:15:42;39.05;;;15.88;;
5900;SDS011;2976;49.764;9.796;2022-12-18T12:19:07;39.90;;;16.20;;
5900;SDS011;2976;49.764;9.796;2022-12-18T12:21:35;38.03;;;15.32;;
5900;SDS011;2976;49.764;9.796;2022-12-18T12:24:12;36.40;;;15.13;;
5900;SDS011;2976;49.764;9.796;2022-12-18T12:38:15;32.55;;;13.63;;
5900;SDS011;2976;49.764;9.796;2022-12-18T12:40:54;36.50;;;15.18;;
5900;SDS011;2976;49.764;9.796;2022-12-18T12:43:43;33.00;;;15.30;;
5900;SDS011;2976;49.764;9.796;2022-12-18T12:46:13;38.47;;;15.70;;
5900;SDS011;2976;49.764;9.796;2022-12-18T12:51:20;37.95;;;15.85;;
5900;SDS011;2976;49.764;9.796;2022-12-18T12:53:46;38.10;;;15.65;;
5900;SDS011;2976;49.764;9.796;2022-12-18T12:56:13;41.53;;;18.90;;
5900;SDS011;2976;49.764;9.796;2022-12-18T12:58:45;47.67;;;18.10;;
5900;SDS011;2976;49.764;9.796;2022-12-18T13:04:18;43.83;;;14.85;;
5900;SDS011;2976;49.764;9.796;2022-12-18T13:07:05;39.95;;;16.45;;
5900;SDS011;2976;49.764;9.796;2022-12-18T13:10:11;35.42;;;15.07;;
5900;SDS011;2976;49.764;9.796;2022-12-18T13:12:50;36.65;;;15.73;;
5900;SDS011;2976;49.764;9.796;2022-12-18T13:15:23;33.72;;;14.02;;
5900;SDS011;2976;49.764;9.796;2022-12-18T13:18:05;44.35;;;16.65;;
5900;SDS011;2976;49.764;9.796;2022-12-18T13:23:01;34.28;;;15.60;;
5900;SDS011;2976;49.764;9.796;2022-12-18T13:25:44;33.15;;;14.02;;
5900;SDS011;2976;49.764;9.796;2022-12-18T13:28:11;34.63;;;15.07;;
5900;SDS011;2976;49.764;9.796;2022-12-18T13:30:41;40.05;;;16.02;;
5900;SDS011;2976;49.764;9.796;2022-12-18T13:35:39;31.88;;;13.85;;
5900;SDS011;2976;49.764;9.796;2022-12-18T13:43:29;35.20;;;14.13;;
5900;SDS011;2976;49.764;9.796;2022-12-18T13:48:52;35.65;;;14.73;;
5900;SDS011;2976;49.764;9.796;2022-12-18T13:51:23;38.80;;;16.15;;
5900;SDS011;2976;49.764;9.796;2022-12-18T13:54:17;31.33;;;14.60;;
5900;SDS011;2976;49.764;9.796;2022-12-18T13:57:03;33.53;;;15.85;;
5900;SDS011;2976;49.764;9.796;2022-12-18T13:59:37;40.38;;;14.95;;
5900;SDS011;2976;49.764;9.796;2022-12-18T14:02:12;40.00;;;14.95;;
5900;SDS011;2976;49.764;9.796;2022-12-18T14:04:39;43.15;;;17.75;;
5900;SDS011;2976;49.764;9.796;2022-12-18T14:07:05;39.40;;;14.90;;
5900;SDS011;2976;49.764;9.796;2022-12-18T14:09:42;35.78;;;15.00;;
5900;SDS011;2976;49.764;9.796;2022-12-18T14:12:17;41.53;;;16.55;;
5900;SDS011;2976;49.764;9.796;2022-12-18T14:15:06;45.95;;;16.13;;
5900;SDS011;2976;49.764;9.796;2022-12-18T14:17:57;35.92;;;16.33;;
5900;SDS011;2976;49.764;9.796;2022-12-18T14:20:29;34.75;;;13.85;;
5900;SDS011;2976;49.764;9.796;2022-12-18T14:22:56;44.00;;;16.60;;
5900;SDS011;2976;49.764;9.796;2022-12-18T14:25:24;37.30;;;16.75;;
5900;SDS011;2976;49.764;9.796;2022-12-18T14:28:02;41.97;;;17.75;;
5900;SDS011;2976;49.764;9.796;2022-12-18T14:30:35;35.10;;;15.35;;
5900;SDS011;2976;49.764;9.796;2022-12-18T14:35:38;38.90;;;15.30;;
5900;SDS011;2976;49.764;9.796;2022-12-18T14:38:29;38.45;;;17.00;;
5900;SDS011;2976;49.764;9.796;2022-12-18T14:40:58;41.58;;;16.60;;
5900;SDS011;2976;49.764;9.796;2022-12-18T14:43:29;40.58;;;15.95;;
5900;SDS011;2976;49.764;9.796;2022-12-18T14:45:59;38.03;;;16.17;;
5900;SDS011;2976;49.764;9.796;2022-12-18T14:48:39;38.33;;;15.15;;
5900;SDS011;2976;49.764;9.796;2022-12-18T14:51:16;41.20;;;14.60;;
5900;SDS011;2976;49.764;9.796;2022-12-18T14:54:01;37.78;;;15.18;;
5900;SDS011;2976;49.764;9.796;2022-12-18T14:59:03;34.95;;;15.00;;
5900;SDS011;2976;49.764;9.796;2022-12-18T15:01:33;40.28;;;16.80;;
5900;SDS011;2976;49.764;9.796;2022-12-18T15:04:02;39.90;;;16.98;;
5900;SDS011;2976;49.764;9.796;2022-12-18T15:06:30;37.88;;;17.33;;
5900;SDS011;2976;49.764;9.796;2022-12-18T15:08:59;37.22;;;15.70;;
5900;SDS011;2976;49.764;9.796;2022-12-18T15:12:01;40.58;;;16.83;;
5900;SDS011;2976;49.764;9.796;2022-12-18T15:14:24;40.17;;;15.73;;
5900;SDS011;2976;49.764;9.796;2022-12-18T15:16:58;41.08;;;16.90;;
5900;SDS011;2976;49.764;9.796;2022-12-18T15:19:32;50.45;;;18.52;;
5900;SDS011;2976;49.764;9.796;2022-12-18T15:22:04;47.63;;;18.00;;
5900;SDS011;2976;49.764;9.796;2022-12-18T15:24:54;41.20;;;17.20;;
5900;SDS011;2976;49.764;9.796;2022-12-18T15:27:22;37.30;;;16.40;;
5900;SDS011;2976;49.764;9.796;2022-12-18T15:32:32;43.15;;;16.50;;
5900;SDS011;2976;49.764;9.796;2022-12-18T15:37:33;72.68;;;24.83;;
5900;SDS011;2976;49.764;9.796;2022-12-18T15:39:59;43.27;;;19.17;;
5900;SDS011;2976;49.764;9.796;2022-12-18T15:42:25;59.30;;;27.70;;
5900;SDS011;2976;49.764;9.796;2022-12-18T15:45:12;47.33;;;22.90;;
5900;SDS011;2976;49.764;9.796;2022-12-18T15:47:38;57.47;;;25.08;;
5900;SDS011;2976;49.764;9.796;2022-12-18T15:50:04;62.73;;;25.83;;
5900;SDS011;2976;49.764;9.796;2022-12-18T15:52:31;56.70;;;25.20;;
5900;SDS011;2976;49.764;9.796;2022-12-18T15:55:05;52.22;;;21.73;;
5900;SDS011;2976;49.764;9.796;2022-12-18T15:57:57;53.03;;;21.15;;
5900;SDS011;2976;49.764;9.796;2022-12-18T16:00:22;50.60;;;20.70;;
5900;SDS011;2976;49.764;9.796;2022-12-18T16:02:48;66.17;;;25.60;;
5900;SDS011;2976;49.764;9.796;2022-12-18T16:05:14;59.57;;;25.67;;
5900;SDS011;2976;49.764;9.796;2022-12-18T16:07:42;48.58;;;21.40;;
5900;SDS011;2976;49.764;9.796;2022-12-18T16:10:08;58.60;;;22.70;;
5900;SDS011;2976;49.764;9.796;2022-12-18T16:12:34;62.38;;;23.35;;
5900;SDS011;2976;49.764;9.796;2022-12-18T16:15:00;52.22;;;21.17;;
5900;SDS011;2976;49.764;9.796;2022-12-18T16:17:26;49.93;;;20.90;;
5900;SDS011;2976;49.764;9.796;2022-12-18T16:19:51;56.07;;;23.23;;
5900;SDS011;2976;49.764;9.796;2022-12-18T16:22:18;56.80;;;21.33;;
5900;SDS011;2976;49.764;9.796;2022-12-18T16:24:46;52.40;;;20.08;;
5900;SDS011;2976;49.764;9.796;2022-12-18T16:27:12;55.70;;;21.77;;
5900;SDS011;2976;49.764;9.796;2022-12-18T16:29:37;53.67;;;21.30;;
5900;SDS011;2976;49.764;9.796;2022-12-18T16:32:03;50.60;;;20.90;;
5900;SDS011;2976;49.764;9.796;2022-12-18T16:34:29;54.03;;;21.67;;
5900;SDS011;2976;49.764;9.796;2022-12-18T16:36:57;45.03;;;18.90;;
5900;SDS011;2976;49.764;9.796;2022-12-18T16:39:24;40.53;;;17.85;;
5900;SDS011;2976;49.764;9.796;2022-12-18T16:41:51;47.10;;;18.17;;
5900;SDS011;2976;49.764;9.796;2022-12-18T16:44:17;42.17;;;16.50;;
5900;SDS011;2976;49.764;9.796;2022-12-18T16:46:43;44.90;;;16.80;;
5900;SDS011;2976;49.764;9.796;2022-12-18T16:49:10;41.35;;;16.25;;
5900;SDS011;2976;49.764;9.796;2022-12-18T16:51:40;45.72;;;17.67;;
5900;SDS011;2976;49.764;9.796;2022-12-18T16:54:06;67.57;;;24.45;;